AirNav   TITAN Aviation Fuels
 
 988 users online  

11Y Flying Feathers Airport
Chilton, Wisconsin, USA

GOING TO CHILTON?


FAA INFORMATION EFFECTIVE 03 NOVEMBER 2022

Location

FAA Identifier: 11Y
Lat/Long: 44-03-40.2600N 088-11-41.7600W
44-03.671000N 088-11.696000W
44.0611833,-88.1949333
(estimated)
Elevation: 940 ft. / 287 m (estimated)
From city: 2 miles NW of CHILTON, WI
Time zone: UTC -6 (UTC -5 during Daylight Saving Time)
Zip code: 53014

Airport Operations

Airport use: Open to the public
Activation date: 06/2009
Control tower: no
ARTCC: CHICAGO CENTER
FSS: GREEN BAY FLIGHT SERVICE STATION
NOTAMs facility: GRB (NOTAM-D service available)
Attendance: UNATNDD
Wind indicator: yes
Segmented circle: no

Airport Communications

CTAF: 122.9
WX ASOS at OSH (16 nm W): PHONE 920-426-1644
WX AWOS-3 at ATW (18 nm NW): PHONE 920-832-2597

Nearby radio navigation aids

VOR radial/distance  VOR name  Freq  Var
OSHr073/16.1OSHKOSH VORTAC116.7502E
GRBr179/29.6GREEN BAY VORTAC115.5001E
BJBr356/(38.5)WEST BEND VOR109.8001W

 
NDB name  Hdg/Dist  Freq  Var  ID
KOOKY139/12.840702WAQ .- --.-

Airport Services

Airframe service: NONE
Powerplant service: NONE
Bottled oxygen: NONE
Bulk oxygen: NONE

Runway Information

Runway 18/36

Dimensions: 1000 x 60 ft. / 305 x 18 m
Surface: turf, in good condition
Runway edge markings: MKD WITH HALF BARRELS.
RUNWAY 18  RUNWAY 36
Traffic pattern: leftleft

Runway 9/27

Dimensions: 500 x 20 ft. / 152 x 6 m
Surface: turf, in fair condition
Runway edge markings: MKD WITH HALF BARRELS.
RUNWAY 9  RUNWAY 27
Traffic pattern: leftleft
Runway end identifier lights: nono

Airport Ownership and Management from official FAA records

Ownership: Privately-owned
Owner: DEAN HEIMERMANN
W3124 HICKORY HILLS RD
CHILTON, WI 53014
Phone (920) 849-2199
Manager: DEAN HEIMERMANN
W3124 HICKORY HILLS RD
CHILTON, WI 53014
Phone 920-849-2199

Airport Operational Statistics

Aircraft based on the field: 3
Single engine airplanes: 3
    
Aircraft operations: avg 84/month *
99% local general aviation
1% transient general aviation
* for 12-month period ending 15 September 2022

Additional Remarks

A52-18 SEASONAL 8 FT CORN ADJ TO RWY.
FOR CD CTC CHICAGO ARTCC AT 630-906-8921.
FQT CROP DUSTING ACT ON & INVOF ARPT.

Instrument Procedures

There are no published instrument procedures at 11Y.

Some nearby airports with instrument procedures:

8D1 - New Holstein Municipal Airport (8 nm SE)
KOSH - Wittman Regional Airport (16 nm W)
KATW - Appleton International Airport (18 nm NW)
KFLD - Fond Du Lac County Airport (22 nm SW)
KMTW - Manitowoc County Airport (23 nm E)
 
Loc | Ops | Rwys | IFR | FBO | Links
Com | Nav | Svcs | Stats | Notes
Aerial photo
No photo
 
Sectional chart

 
Airport distance calculator
Flying to Flying Feathers Airport? Find the distance to fly.

From to 11Y

Sunrise and sunset
Times for 30-Nov-2022
 Local
(UTC-6)
 Zulu
(UTC)
Morning civil twilight06:3512:35
Sunrise07:0813:08
Sunset16:1522:15
Evening civil twilight16:4822:48

Current date and time
Zulu (UTC)  01-Dec-2022 00:04:57
Local (UTC-6)  30-Nov-2022 18:04:57
 
METAR
KOSH 
16nm W 
302353Z 28017G26KT 10SM BKN029 M06/M13 A3005 RMK AO2 PK WND 29029/2309 SLP197 60000 T10611128 11028 21061 51025
KATW 
18nm NW 
302345Z 28024G31KT 10SM OVC032 M06/M13 A3003
KFLD 
22nm SW 
302353Z AUTO 27016G26KT 10SM BKN031 M06/M12 A3008 RMK AO2 PK WND 26028/2325 SLP199 60000 T10561117 11028 21056 53043
KSBM 
22nm SE 
302353Z AUTO 28020G34KT 10SM BKN032 M05/M12 A3004 RMK AO2 PK WND 26036/2343 SLP183 60000 T10501117 11022 21050 51041
KMTW 
23nm E 
302356Z AUTO 28020G26KT 9SM OVC028 M06/M11 A3001 RMK AO2 PK WND 27030/2335 SNE52 SLP173 P0000 60000 T10561111 11028 21056 51039 FZRANO
KGRB 
25nm N 
302353Z 27020G34KT 10SM BKN037 M06/M12 A3002 RMK AO2 PK WND 29034/2348 SLP178 60000 T10561122 11028 21056 51045
TAF
KATW 
18nm NW 
301936Z 3020/0118 27020G30KT P6SM -SHSN BKN025 FM302200 27020G31KT P6SM BKN035 FM010200 28017G28KT P6SM SCT040 FM010700 28009G17KT P6SM SKC FM011100 25007KT P6SM SCT250
NOTAMs
Click for the latest NOTAMs
NOTAMs are issued by the DoD/FAA and will open in a separate window not controlled by AirNav.

 

 
 

Would you like to see your business listed on this page?

 If your business provides an interesting product or service to pilots, flight crews, aircraft, or users of the Flying Feathers Airport, you should consider listing it here.  To start the listing process, click on the button below
 
Add a business
 

Other Pages about Flying Feathers Airport

Update a link
 
Copyright © AirNav, LLC. All rights reserved. Privacy Policy  Contact